This is the latest recevied weather packets stored in our database for station/object WB9ZLM. If no packets are shown the sender has not sent any weather packets the latest 1 day(s).
| Time | Temp. | Humidity | Pressure | Rain* | Wind** | Luminosity | Snow |
|---|---|---|---|---|---|---|---|
| 1778069761 | 8.33° C | 64% | 1016.4 hPa | 0 mm | - | - | - |
| 1778065322 | 7.22° C | 62% | 1015.1 hPa | 0 mm | - | - | - |
| 1778055361 | 8.33° C | 63% | 1014.4 hPa | 0 mm | - | - | - |
| 1778052721 | 9.44° C | 62% | 1014 hPa | 0 mm | - | - | - |
| 1778047260 | 10.56° C | 61% | 1013.5 hPa | 0 mm | - | - | - |
| 1778046422 | 10.56° C | 60% | 1013.6 hPa | 0 mm | - | - | - |
| 1778044622 | 11.11° C | 59% | 1013.2 hPa | 0 mm | - | - | - |
| 1778044560 | 11.11° C | 59% | 1013.2 hPa | 0 mm | - | - | - |
| 1778042760 | 11.11° C | 56% | 1013.5 hPa | 0 mm | - | - | - |
| 1778041860 | 11.11° C | 55% | 1013.4 hPa | 0 mm | - | - | - |
| 1778040960 | 11.11° C | 53% | 1013.3 hPa | 0 mm | - | - | - |
| 1778040060 | 11.11° C | 53% | 1013.3 hPa | 0 mm | - | - | - |
| 1778037421 | 11.67° C | 54% | 1013.5 hPa | 0 mm | - | - | - |
| 1778037360 | 11.67° C | 54% | 1013.5 hPa | 0 mm | - | - | - |
| 1778036460 | 11.67° C | 53% | 1013.4 hPa | 0 mm | - | - | - |
| 1778032021 | 12.22° C | 50% | 1012.3 hPa | 0 mm | - | - | - |
| 1778031960 | 12.22° C | 50% | 1012.3 hPa | 0 mm | - | - | - |
| 1778031060 | 12.22° C | 50% | 1012.3 hPa | 0 mm | - | - | - |
| 1778030221 | 12.22° C | 49% | 1012.4 hPa | 0 mm | - | - | - |
| 1778030160 | 12.22° C | 49% | 1012.4 hPa | 0 mm | - | - | - |
| 1778029260 | 12.22° C | 49% | 1012.4 hPa | 0 mm | - | - | - |
| 1778023022 | 12.78° C | 45% | 1011.8 hPa | 0 mm | - | - | - |
| 1778021222 | 12.78° C | 44% | 1011.9 hPa | 0 mm | - | - | - |
| 1778013961 | 12.78° C | 46% | 1012.6 hPa | 0 mm | - | - | - |
| 1778013122 | 12.78° C | 46% | 1012.9 hPa | 0 mm | - | - | - |
* Rain latest hour (hover to see other rain measurements)
** Current wind speed in m/s (hover to see current wind gust speed)